Time;durP1;ratioP1;P1;durP2;ratioP2;P2;SDS_P1;SDS_P2;PMS_P1;PMS_P2;Temp;Humidity;BMP_temperature;BMP_pressure;BME280_temperature;BME280_humidity;BME280_pressure;Samples;Min_cycle;Max_cycle;Signal;HPM_P1;HPM_P2
2022/07/21 00:02:17;;;;;;;14.30;5.15;;;21.20;99.90;;;;;;5015043;28;20072;-81
2022/07/21 00:04:43;;;;;;;14.50;4.90;;;21.10;99.90;;;;;;4982910;28;20033;-76
2022/07/21 00:07:08;;;;;;;12.95;5.20;;;21.10;99.90;;;;;;4995210;28;20950;-80
2022/07/21 00:09:35;;;;;;;12.85;4.88;;;21.10;99.90;;;;;;5023993;28;20516;-80
2022/07/21 00:12:05;;;;;;;14.00;5.28;;;21.00;99.90;;;;;;5009975;28;20489;-76
2022/07/21 00:14:30;;;;;;;15.40;5.70;;;21.00;99.90;;;;;;5010692;28;20045;-75
2022/07/21 00:16:57;;;;;;;16.77;5.60;;;21.00;99.90;;;;;;4989159;28;20496;-80
2022/07/21 00:19:23;;;;;;;17.55;5.50;;;21.00;99.90;;;;;;5030566;28;20060;-81
2022/07/21 00:21:49;;;;;;;14.05;5.47;;;21.00;99.90;;;;;;5019532;28;20038;-80
2022/07/21 00:24:15;;;;;;;14.10;5.28;;;21.00;99.90;;;;;;5013819;28;20040;-78
2022/07/21 00:26:41;;;;;;;12.63;5.80;;;20.90;99.90;;;;;;5040764;28;20033;-83
2022/07/21 00:29:07;;;;;;;17.65;5.53;;;20.90;99.90;;;;;;4990983;28;20453;-82
2022/07/21 00:31:33;;;;;;;15.38;5.50;;;20.90;99.90;;;;;;4991729;28;20036;-83
2022/07/21 00:33:59;;;;;;;15.13;5.65;;;20.90;99.90;;;;;;5044837;28;20042;-80
2022/07/21 00:36:25;;;;;;;12.52;5.53;;;20.90;99.90;;;;;;5040144;28;20062;-81
2022/07/21 00:38:50;;;;;;;11.02;5.28;;;20.90;99.90;;;;;;5047046;28;20385;-78
2022/07/21 00:41:16;;;;;;;14.88;5.65;;;20.90;99.90;;;;;;5024224;28;20041;-79
2022/07/21 00:43:42;;;;;;;11.23;5.40;;;20.80;99.90;;;;;;5022528;28;20045;-80
2022/07/21 00:46:07;;;;;;;13.32;5.63;;;20.80;99.90;;;;;;5062976;28;20032;-81
2022/07/21 00:48:34;;;;;;;11.82;5.50;;;20.80;99.90;;;;;;5057218;28;20059;-80
2022/07/21 00:51:00;;;;;;;12.50;5.82;;;20.80;99.90;;;;;;5056541;28;20039;-83
2022/07/21 00:53:26;;;;;;;14.63;6.10;;;20.80;99.90;;;;;;5038948;28;20046;-83
2022/07/21 00:55:52;;;;;;;15.50;6.18;;;20.90;99.90;;;;;;5046126;28;20479;-80
2022/07/21 00:58:18;;;;;;;18.25;5.88;;;20.80;99.90;;;;;;5060262;28;20100;-80
2022/07/21 01:00:44;;;;;;;17.00;6.22;;;20.80;99.90;;;;;;5016940;28;20930;-79
2022/07/21 01:03:10;;;;;;;25.88;6.47;;;20.80;99.90;;;;;;5052088;28;20041;-79
2022/07/21 01:05:36;;;;;;;17.55;7.70;;;20.80;99.90;;;;;;5047343;28;20057;-79
2022/07/21 01:08:03;;;;;;;22.23;7.82;;;20.80;99.90;;;;;;5003466;28;20051;-80
2022/07/21 01:10:30;;;;;;;18.63;7.63;;;20.70;99.90;;;;;;5033198;28;20107;-79
2022/07/21 01:12:57;;;;;;;17.20;7.03;;;20.60;99.90;;;;;;5042802;28;20059;-78
2022/07/21 01:15:23;;;;;;;15.15;7.72;;;20.60;99.90;;;;;;5023737;28;20123;-78
2022/07/21 01:17:49;;;;;;;15.50;7.70;;;20.50;99.90;;;;;;5024647;28;20426;-79
2022/07/21 01:20:19;;;;;;;17.70;8.30;;;20.50;99.90;;;;;;5052794;28;20037;-81
2022/07/21 01:22:47;;;;;;;15.68;7.82;;;20.40;99.90;;;;;;5042262;28;20036;-80
2022/07/21 01:25:13;;;;;;;18.20;8.23;;;20.40;99.90;;;;;;5048470;28;20064;-79
2022/07/21 01:27:39;;;;;;;18.42;8.52;;;20.40;99.90;;;;;;5047576;28;20083;-79
2022/07/21 01:30:07;;;;;;;19.50;8.70;;;20.30;99.90;;;;;;5066518;28;20032;-77
2022/07/21 01:32:35;;;;;;;17.67;8.00;;;20.20;99.90;;;;;;5069621;28;20033;-75
2022/07/21 01:35:02;;;;;;;13.82;8.00;;;20.20;99.90;;;;;;5031841;28;20046;-79
2022/07/21 01:37:30;;;;;;;14.13;8.25;;;20.30;99.90;;;;;;5063248;28;20053;-78
2022/07/21 01:42:40;;;;;;;20.33;9.17;;;20.30;99.90;;;;;;5074432;28;20476;-78
2022/07/21 01:45:07;;;;;;;19.05;9.13;;;20.30;99.90;;;;;;5025434;28;20037;-80
2022/07/21 01:47:33;;;;;;;19.02;9.05;;;20.20;99.90;;;;;;5074379;28;20037;-81
2022/07/21 01:49:59;;;;;;;22.75;9.55;;;20.10;99.90;;;;;;5040356;28;20029;-81
2022/07/21 01:52:24;;;;;;;16.90;9.13;;;20.20;99.90;;;;;;5058185;28;20510;-80
2022/07/21 01:54:50;;;;;;;17.88;9.27;;;20.20;99.90;;;;;;5036704;28;20033;-81
2022/07/21 01:57:17;;;;;;;17.98;9.70;;;20.10;99.90;;;;;;5055044;28;20041;-77
2022/07/21 01:59:42;;;;;;;14.50;9.15;;;20.10;99.90;;;;;;5080781;28;20056;-81
2022/07/21 02:02:09;;;;;;;25.02;10.02;;;20.10;99.90;;;;;;5025060;28;20037;-79
2022/07/21 02:04:35;;;;;;;18.35;9.30;;;20.10;99.90;;;;;;5050686;28;20039;-80
2022/07/21 02:07:04;;;;;;;17.75;10.15;;;20.10;99.90;;;;;;5071739;28;20044;-79
2022/07/21 02:09:30;;;;;;;18.05;9.45;;;20.00;99.90;;;;;;5072608;28;20045;-79
2022/07/21 02:11:55;;;;;;;20.85;10.57;;;20.00;99.90;;;;;;5058140;28;20433;-80
2022/07/21 02:14:21;;;;;;;24.02;10.95;;;20.00;99.90;;;;;;5042473;28;20061;-81
2022/07/21 02:16:47;;;;;;;22.75;9.70;;;20.10;99.90;;;;;;5056402;28;20138;-79
2022/07/21 02:19:13;;;;;;;23.50;10.90;;;20.00;99.90;;;;;;5037297;28;20080;-82
2022/07/21 02:21:38;;;;;;;31.45;11.13;;;20.00;99.90;;;;;;5034788;28;20048;-80
2022/07/21 02:24:05;;;;;;;22.70;10.35;;;20.00;99.90;;;;;;5033021;28;20029;-81
2022/07/21 02:26:36;;;;;;;23.45;11.70;;;19.90;99.90;;;;;;5038016;28;20119;-79
2022/07/21 02:29:02;;;;;;;22.48;11.23;;;19.80;99.90;;;;;;5050415;28;20081;-79
2022/07/21 02:31:28;;;;;;;19.90;11.27;;;19.80;99.90;;;;;;5072332;28;20186;-85
2022/07/21 02:33:54;;;;;;;18.23;11.25;;;19.70;99.90;;;;;;5060810;28;20425;-81
2022/07/21 02:36:19;;;;;;;22.85;10.70;;;19.70;99.90;;;;;;5056077;28;20087;-79
2022/07/21 02:38:45;;;;;;;20.08;10.77;;;19.70;99.90;;;;;;5037749;28;20049;-78
2022/07/21 02:41:11;;;;;;;31.17;11.45;;;19.60;99.90;;;;;;5052208;28;20068;-77
2022/07/21 02:43:36;;;;;;;22.95;11.13;;;19.70;99.90;;;;;;5065924;28;20057;-83
2022/07/21 02:46:02;;;;;;;20.42;12.05;;;19.60;99.90;;;;;;5042792;28;20357;-81
2022/07/21 02:48:28;;;;;;;22.63;12.30;;;19.60;99.90;;;;;;5064719;28;20053;-79
2022/07/21 02:51:12;;;;;;;24.45;13.27;;;19.60;99.90;;;;;;5073930;28;20036;-75
2022/07/21 02:53:38;;;;;;;23.40;12.57;;;19.50;99.90;;;;;;5060961;28;20077;-74
2022/07/21 02:56:04;;;;;;;22.48;13.05;;;19.40;99.90;;;;;;5016176;28;20069;-79
2022/07/21 02:58:30;;;;;;;22.05;12.35;;;19.50;99.90;;;;;;5017606;28;20037;-81
2022/07/21 03:01:03;;;;;;;19.30;11.77;;;19.50;99.90;;;;;;5050021;28;20387;-81
2022/07/21 03:03:32;;;;;;;17.45;11.50;;;19.50;99.90;;;;;;5054202;28;20872;-79
2022/07/21 03:05:58;;;;;;;20.23;12.05;;;19.50;99.90;;;;;;5032710;28;20041;-81
2022/07/21 03:08:25;;;;;;;21.35;12.15;;;19.50;99.90;;;;;;5049270;28;20064;-77
2022/07/21 03:10:51;;;;;;;20.02;13.35;;;19.60;99.90;;;;;;5055765;28;20041;-80
2022/07/21 03:13:17;;;;;;;21.80;12.77;;;19.50;99.90;;;;;;5039196;28;20044;-77
2022/07/21 03:15:43;;;;;;;17.85;11.68;;;19.50;99.90;;;;;;5043132;28;20231;-77
2022/07/21 03:18:09;;;;;;;22.08;13.30;;;19.60;99.90;;;;;;5059597;28;20091;-76
2022/07/21 03:20:38;;;;;;;22.15;12.65;;;19.60;99.90;;;;;;5060804;28;20124;-82
2022/07/21 03:23:04;;;;;;;23.70;12.60;;;19.70;99.90;;;;;;5046041;28;20038;-78
2022/07/21 03:25:32;;;;;;;18.25;12.80;;;19.60;99.90;;;;;;5049274;28;20048;-78
2022/07/21 03:27:58;;;;;;;24.02;14.13;;;19.60;99.90;;;;;;5047393;28;20049;-81
2022/07/21 03:30:24;;;;;;;20.13;12.38;;;19.60;99.90;;;;;;5030206;28;20064;-76
2022/07/21 03:32:51;;;;;;;20.38;13.25;;;19.60;99.90;;;;;;5032109;28;20049;-77
2022/07/21 03:35:18;;;;;;;24.33;14.55;;;19.70;99.90;;;;;;5033625;28;20069;-77
2022/07/21 03:37:52;;;;;;;18.00;12.75;;;19.70;99.90;;;;;;5030486;28;20065;-81
2022/07/21 03:40:22;;;;;;;21.52;14.18;;;19.70;99.90;;;;;;5033301;28;20041;-81
2022/07/21 03:42:49;;;;;;;20.58;14.32;;;19.70;99.90;;;;;;5049461;28;20045;-80
2022/07/21 03:45:14;;;;;;;23.30;14.65;;;19.70;99.90;;;;;;5035713;28;20066;-78
2022/07/21 03:47:40;;;;;;;23.23;14.38;;;19.60;99.90;;;;;;5035380;28;20065;-80
2022/07/21 03:50:06;;;;;;;29.23;16.73;;;19.60;99.90;;;;;;5049190;28;20145;-81
2022/07/21 03:52:32;;;;;;;23.52;14.90;;;19.60;99.90;;;;;;5049588;28;20488;-78
2022/07/21 03:55:10;;;;;;;25.60;15.35;;;19.60;99.90;;;;;;5033707;28;20091;-78
2022/07/21 03:57:44;;;;;;;18.58;14.18;;;19.60;99.90;;;;;;5047689;28;20045;-80
2022/07/21 04:00:13;;;;;;;24.38;15.50;;;19.60;99.90;;;;;;5053102;28;20120;-77
2022/07/21 04:02:42;;;;;;;26.00;16.13;;;19.60;99.90;;;;;;5051390;28;20033;-81
2022/07/21 04:05:10;;;;;;;24.42;15.60;;;19.60;99.90;;;;;;5052353;28;20056;-82
2022/07/21 04:07:36;;;;;;;22.00;15.60;;;19.60;99.90;;;;;;5041663;28;20155;-79
2022/07/21 04:10:03;;;;;;;29.55;17.75;;;19.70;99.90;;;;;;5045637;28;20040;-73
2022/07/21 04:12:29;;;;;;;23.50;16.70;;;19.60;99.90;;;;;;5045280;28;20041;-74
2022/07/21 04:14:55;;;;;;;25.73;15.85;;;19.60;99.90;;;;;;5004005;28;20044;-78
2022/07/21 04:17:21;;;;;;;28.63;16.55;;;19.60;99.90;;;;;;5051821;28;20033;-79
2022/07/21 04:19:48;;;;;;;23.40;15.68;;;19.60;99.90;;;;;;5052721;28;20052;-78
2022/07/21 04:22:13;;;;;;;22.60;15.80;;;19.60;99.90;;;;;;5040389;28;20095;-79
2022/07/21 04:24:39;;;;;;;27.63;16.92;;;19.60;99.90;;;;;;5057772;28;20466;-81
2022/07/21 04:27:05;;;;;;;28.50;16.90;;;19.60;99.90;;;;;;5027332;28;20061;-77
2022/07/21 04:29:30;;;;;;;25.15;16.77;;;19.60;99.90;;;;;;5052926;28;20037;-80
2022/07/21 04:31:56;;;;;;;22.50;17.05;;;19.60;99.90;;;;;;5057962;28;20476;-81
2022/07/21 04:34:22;;;;;;;28.92;19.15;;;19.60;99.90;;;;;;5030751;28;20105;-78
2022/07/21 04:36:47;;;;;;;24.88;17.85;;;19.60;99.90;;;;;;5003935;28;20049;-76
2022/07/21 04:39:13;;;;;;;25.92;18.63;;;19.60;99.90;;;;;;5039520;28;20048;-77
2022/07/21 04:41:39;;;;;;;26.27;18.52;;;19.60;99.90;;;;;;4996851;28;20042;-78
2022/07/21 04:44:04;;;;;;;28.80;19.27;;;19.70;99.90;;;;;;4996592;28;20049;-78
2022/07/21 04:46:30;;;;;;;29.45;19.77;;;19.60;99.90;;;;;;4999527;28;20041;-80
2022/07/21 04:48:56;;;;;;;31.88;20.75;;;19.60;99.90;;;;;;4995524;28;20042;-79
2022/07/21 04:51:21;;;;;;;25.00;20.27;;;19.60;99.90;;;;;;4996875;28;20073;-76
2022/07/21 04:53:47;;;;;;;16.90;12.27;;;19.70;99.90;;;;;;4994525;28;20145;-77
2022/07/21 04:56:13;;;;;;;17.48;13.60;;;19.80;99.90;;;;;;4982251;28;20045;-75
2022/07/21 04:58:38;;;;;;;20.35;14.05;;;20.00;99.90;;;;;;5013078;28;20045;-77
2022/07/21 05:01:04;;;;;;;19.98;15.10;;;20.20;99.90;;;;;;4998555;28;20042;-77
2022/07/21 05:03:30;;;;;;;21.50;14.48;;;20.40;99.90;;;;;;4977606;28;20037;-76
2022/07/21 05:05:55;;;;;;;23.90;16.73;;;20.60;99.90;;;;;;5020595;28;20124;-77
2022/07/21 05:08:21;;;;;;;25.95;18.30;;;20.70;99.90;;;;;;5003083;28;20056;-76
2022/07/21 05:10:46;;;;;;;23.20;17.25;;;20.80;99.90;;;;;;5033617;28;20172;-76
2022/07/21 05:13:12;;;;;;;22.42;15.77;;;20.90;99.90;;;;;;5003081;28;20444;-76
2022/07/21 05:15:38;;;;;;;23.25;17.23;;;20.90;99.90;;;;;;5017932;28;20042;-76
2022/07/21 05:18:07;;;;;;;20.25;16.08;;;20.90;99.90;;;;;;5027341;28;20218;-76
2022/07/21 05:20:33;;;;;;;24.15;16.48;;;21.00;99.90;;;;;;5014464;28;20116;-80
2022/07/21 05:22:58;;;;;;;21.20;16.05;;;20.90;99.90;;;;;;5013426;28;20220;-77
2022/07/21 05:25:24;;;;;;;21.20;14.85;;;20.90;99.90;;;;;;5009088;28;20072;-74
2022/07/21 05:27:50;;;;;;;16.92;14.18;;;20.90;99.90;;;;;;4993110;28;20041;-77
2022/07/21 05:30:15;;;;;;;19.23;13.82;;;20.90;99.90;;;;;;5032912;28;20038;-77
2022/07/21 05:32:41;;;;;;;19.95;16.40;;;21.00;99.90;;;;;;5018348;28;20056;-77
2022/07/21 05:35:10;;;;;;;20.70;15.43;;;20.80;99.90;;;;;;5020353;28;20041;-77
2022/07/21 05:37:40;;;;;;;21.20;16.42;;;20.90;99.90;;;;;;5046886;28;20064;-75
2022/07/21 05:40:08;;;;;;;22.00;16.42;;;20.80;99.90;;;;;;5034697;28;20048;-77
2022/07/21 05:42:34;;;;;;;16.75;13.88;;;20.80;99.90;;;;;;5046525;28;20045;-77
2022/07/21 05:45:00;;;;;;;16.23;14.13;;;20.80;99.90;;;;;;5055115;28;20033;-77
2022/07/21 05:47:25;;;;;;;19.50;13.93;;;20.80;99.90;;;;;;5033215;28;20107;-78
2022/07/21 05:50:04;;;;;;;19.63;16.13;;;20.80;99.90;;;;;;5025928;28;20041;-77
2022/07/21 05:52:29;;;;;;;15.45;12.55;;;20.90;99.90;;;;;;5029301;28;20112;-75
2022/07/21 05:54:55;;;;;;;17.42;12.93;;;21.00;99.90;;;;;;5051706;28;20148;-76
2022/07/21 05:57:21;;;;;;;20.08;14.80;;;20.90;99.90;;;;;;5017678;28;20076;-76
2022/07/21 05:59:46;;;;;;;20.17;14.25;;;21.00;99.90;;;;;;5029446;28;20116;-77
2022/07/21 06:02:12;;;;;;;20.17;15.30;;;21.00;99.90;;;;;;5036404;28;20064;-77
2022/07/21 06:04:38;;;;;;;17.58;13.63;;;21.10;99.90;;;;;;5054770;28;20126;-77
2022/07/21 06:07:04;;;;;;;17.88;12.77;;;21.20;99.90;;;;;;5003713;28;20038;-78
2022/07/21 06:09:32;;;;;;;16.48;13.88;;;21.20;99.90;;;;;;5037842;28;20456;-77
2022/07/21 06:11:58;;;;;;;19.02;13.95;;;21.30;99.90;;;;;;5053886;28;20033;-76
2022/07/21 06:14:23;;;;;;;20.75;14.68;;;21.40;99.90;;;;;;5018366;28;20439;-78
2022/07/21 06:16:49;;;;;;;19.75;14.30;;;21.30;99.90;;;;;;5031700;28;20041;-78
2022/07/21 06:19:16;;;;;;;18.83;14.52;;;21.10;99.90;;;;;;5047425;28;20036;-78
2022/07/21 06:21:41;;;;;;;20.98;16.63;;;21.20;99.90;;;;;;5033585;28;21061;-75
2022/07/21 06:24:08;;;;;;;19.73;15.13;;;21.10;99.90;;;;;;5033028;28;20131;-76
2022/07/21 06:26:34;;;;;;;21.15;15.10;;;21.10;99.90;;;;;;5043341;28;20132;-76
2022/07/21 06:28:59;;;;;;;20.08;15.02;;;20.90;99.90;;;;;;5019822;28;20084;-76
2022/07/21 06:31:25;;;;;;;17.13;14.35;;;20.90;99.90;;;;;;5033264;28;20129;-76
2022/07/21 06:33:51;;;;;;;16.95;12.88;;;21.00;99.90;;;;;;5036089;28;20400;-78
2022/07/21 06:36:16;;;;;;;18.52;13.57;;;21.10;99.90;;;;;;5047515;28;20045;-78
2022/07/21 06:38:44;;;;;;;18.25;14.60;;;21.20;99.90;;;;;;5051752;28;20428;-78
2022/07/21 06:41:10;;;;;;;15.90;12.88;;;21.20;99.90;;;;;;5018001;28;20191;-78
2022/07/21 06:43:36;;;;;;;15.68;13.45;;;21.30;99.90;;;;;;5028037;28;20049;-78
2022/07/21 06:46:05;;;;;;;16.00;12.65;;;21.30;99.90;;;;;;5046836;28;20407;-76
2022/07/21 06:48:30;;;;;;;19.85;15.20;;;21.30;99.90;;;;;;5017476;28;20045;-78
2022/07/21 06:50:57;;;;;;;18.25;13.20;;;21.30;99.90;;;;;;5051385;28;20056;-78
2022/07/21 06:53:25;;;;;;;19.63;15.23;;;21.30;99.90;;;;;;5053866;28;20053;-76
2022/07/21 06:55:52;;;;;;;18.27;14.55;;;21.30;99.90;;;;;;5027766;28;20114;-77
2022/07/21 06:58:21;;;;;;;14.93;12.63;;;21.40;99.90;;;;;;5032493;28;20055;-77
2022/07/21 07:00:49;;;;;;;18.55;13.07;;;21.40;99.90;;;;;;5047843;28;20622;-78
2022/07/21 07:03:15;;;;;;;18.90;12.93;;;21.40;99.90;;;;;;5035461;28;20049;-76
2022/07/21 07:05:43;;;;;;;17.48;13.82;;;21.50;99.90;;;;;;5032913;28;20055;-77
2022/07/21 07:08:09;;;;;;;16.95;13.02;;;21.70;99.90;;;;;;5047548;28;20045;-76
2022/07/21 07:10:34;;;;;;;21.02;15.48;;;21.80;99.90;;;;;;5030232;28;20376;-76
2022/07/21 07:13:03;;;;;;;19.40;13.38;;;21.80;99.90;;;;;;5040677;28;20049;-75
2022/07/21 07:15:29;;;;;;;20.65;17.30;;;21.80;99.90;;;;;;5063099;28;20423;-76
2022/07/21 07:17:55;;;;;;;20.80;15.95;;;21.80;99.90;;;;;;5017728;28;20064;-77
2022/07/21 07:20:21;;;;;;;22.38;18.02;;;21.90;99.90;;;;;;5050057;28;21021;-77
2022/07/21 07:22:47;;;;;;;18.10;14.75;;;21.90;99.90;;;;;;5019510;28;20160;-78
2022/07/21 07:25:16;;;;;;;25.92;16.40;;;21.90;99.90;;;;;;5035146;28;20076;-77
2022/07/21 07:27:43;;;;;;;24.40;19.52;;;21.90;99.90;;;;;;4999106;28;20221;-77
2022/07/21 07:30:10;;;;;;;27.48;18.00;;;21.90;99.90;;;;;;5048667;28;20056;-76
2022/07/21 07:32:36;;;;;;;19.70;16.48;;;21.80;99.90;;;;;;5005185;28;20076;-78
2022/07/21 07:35:05;;;;;;;22.98;18.08;;;21.80;99.90;;;;;;5034964;28;20436;-78
2022/07/21 07:37:30;;;;;;;22.63;18.33;;;21.90;99.90;;;;;;5053126;28;20037;-77
2022/07/21 07:39:56;;;;;;;20.05;15.32;;;21.90;99.90;;;;;;5072033;28;20100;-79
2022/07/21 07:42:21;;;;;;;18.77;16.73;;;21.90;99.90;;;;;;5064443;28;20049;-78
2022/07/21 07:44:47;;;;;;;17.17;14.90;;;22.00;99.90;;;;;;5034991;28;20033;-79
2022/07/21 07:47:13;;;;;;;22.30;17.50;;;22.10;99.90;;;;;;5052665;28;20048;-77
2022/07/21 07:49:39;;;;;;;19.65;17.35;;;22.10;99.90;;;;;;5034036;28;20072;-77
2022/07/21 07:52:23;;;;;;;22.33;18.00;;;22.10;99.90;;;;;;5030053;28;20047;-78
2022/07/21 07:54:53;;;;;;;22.63;17.95;;;22.00;99.90;;;;;;5065417;28;20492;-80
2022/07/21 07:57:19;;;;;;;18.70;16.80;;;22.00;99.90;;;;;;5034616;28;20556;-78
2022/07/21 07:59:44;;;;;;;24.27;14.65;;;21.90;99.90;;;;;;5050393;28;20103;-77
2022/07/21 08:02:10;;;;;;;20.00;15.90;;;22.20;99.90;;;;;;5056963;28;20047;-76
2022/07/21 08:04:40;;;;;;;19.88;16.27;;;22.20;99.90;;;;;;5065231;28;20053;-76
2022/07/21 08:07:06;;;;;;;20.75;16.90;;;22.20;99.90;;;;;;5060709;28;20500;-76
2022/07/21 08:09:33;;;;;;;23.88;16.75;;;22.10;99.90;;;;;;5035726;28;20147;-80
2022/07/21 08:11:59;;;;;;;22.75;17.73;;;21.90;99.90;;;;;;5039067;28;20487;-78
2022/07/21 08:14:25;;;;;;;23.95;17.50;;;21.80;99.90;;;;;;5060834;28;20053;-79
2022/07/21 08:16:50;;;;;;;22.00;18.23;;;21.70;99.90;;;;;;5062244;28;20052;-80
2022/07/21 08:19:16;;;;;;;22.20;19.10;;;21.70;99.90;;;;;;5045971;28;20377;-78
2022/07/21 08:21:42;;;;;;;21.98;18.13;;;21.70;99.90;;;;;;5051238;28;20042;-78
2022/07/21 08:24:08;;;;;;;19.98;17.95;;;21.60;99.90;;;;;;5064878;28;20053;-79
2022/07/21 08:26:34;;;;;;;24.70;18.05;;;21.70;99.90;;;;;;5039711;28;20095;-78
2022/07/21 08:29:04;;;;;;;21.42;17.77;;;21.70;99.90;;;;;;5057451;28;20049;-76
2022/07/21 08:31:32;;;;;;;24.25;18.65;;;21.70;99.90;;;;;;5054171;28;20094;-79
2022/07/21 08:33:58;;;;;;;22.60;19.23;;;21.70;99.90;;;;;;5050975;28;20037;-80
2022/07/21 08:36:24;;;;;;;21.23;17.98;;;21.80;99.90;;;;;;5062947;28;20456;-78
2022/07/21 08:38:49;;;;;;;21.48;19.17;;;21.80;99.90;;;;;;5051261;28;20125;-80
2022/07/21 08:41:15;;;;;;;21.65;18.75;;;21.80;99.90;;;;;;5019245;28;20046;-79
2022/07/21 08:43:44;;;;;;;24.10;19.92;;;21.90;99.90;;;;;;5027725;28;20045;-78
2022/07/21 08:46:10;;;;;;;20.95;18.75;;;21.90;99.90;;;;;;5038123;28;20096;-81
2022/07/21 08:48:37;;;;;;;21.77;19.20;;;22.00;99.90;;;;;;5005074;28;20037;-79
2022/07/21 08:51:03;;;;;;;24.08;19.52;;;22.10;99.90;;;;;;5020117;28;20054;-79
2022/07/21 08:53:30;;;;;;;25.05;19.95;;;22.00;99.90;;;;;;5012337;28;20037;-79
2022/07/21 08:55:59;;;;;;;25.02;18.95;;;22.10;99.90;;;;;;5022101;28;20042;-79
2022/07/21 08:58:25;;;;;;;24.35;19.25;;;22.10;99.90;;;;;;5023418;28;20054;-79
2022/07/21 09:00:51;;;;;;;24.90;20.33;;;22.20;99.90;;;;;;5012284;28;20123;-79
2022/07/21 09:03:22;;;;;;;22.73;20.25;;;22.30;99.90;;;;;;5012824;28;20062;-79
2022/07/21 09:06:04;;;;;;;28.45;21.40;;;22.40;99.90;;;;;;5024973;28;20045;-78
2022/07/21 09:08:42;;;;;;;28.30;21.75;;;22.40;99.90;;;;;;5020870;28;20042;-80
2022/07/21 09:11:17;;;;;;;28.35;22.17;;;22.30;99.90;;;;;;4996560;28;20346;-78
2022/07/21 09:13:44;;;;;;;29.77;24.73;;;22.20;99.90;;;;;;4986831;28;20138;-79
2022/07/21 09:16:10;;;;;;;29.73;24.48;;;22.10;99.90;;;;;;5028841;28;20092;-80
2022/07/21 09:19:03;;;;;;;29.75;24.52;;;22.10;99.90;;;;;;5028813;28;20478;-79
2022/07/21 09:21:29;;;;;;;29.55;25.90;;;22.20;99.90;;;;;;4991537;28;20041;-80
2022/07/21 09:24:18;;;;;;;30.23;26.27;;;22.20;99.90;;;;;;5007272;28;20061;-78
2022/07/21 09:27:12;;;;;;;33.17;27.60;;;22.30;99.90;;;;;;5023559;28;20129;-77
2022/07/21 09:29:44;;;;;;;32.42;26.98;;;22.40;99.90;;;;;;5047291;28;21781;-75
2022/07/21 09:32:20;;;;;;;30.58;26.90;;;22.50;99.90;;;;;;5033904;28;20132;-75
2022/07/21 09:34:48;;;;;;;30.27;25.10;;;22.50;99.90;;;;;;5047626;28;20060;-76
2022/07/21 09:37:15;;;;;;;35.92;27.92;;;22.60;99.90;;;;;;5038209;28;20057;-75
2022/07/21 09:40:08;;;;;;;35.90;29.08;;;22.60;99.90;;;;;;5016112;28;20573;-75
2022/07/21 09:42:39;;;;;;;34.33;29.63;;;22.70;99.90;;;;;;5054969;28;20956;-76
2022/07/21 09:45:08;;;;;;;32.40;28.42;;;22.70;99.90;;;;;;5041212;28;20049;-76
2022/07/21 09:47:34;;;;;;;34.63;29.08;;;22.90;99.90;;;;;;5038015;28;20041;-77
2022/07/21 09:50:01;;;;;;;38.25;30.17;;;22.90;99.90;;;;;;5033296;28;20048;-76
2022/07/21 09:52:38;;;;;;;42.25;32.10;;;23.00;99.90;;;;;;5031517;28;20476;-75
2022/07/21 09:55:07;;;;;;;37.30;32.25;;;23.10;99.90;;;;;;5037060;28;20091;-76
2022/07/21 09:57:33;;;;;;;36.03;31.23;;;23.00;99.90;;;;;;5045152;28;20126;-76
2022/07/21 10:00:00;;;;;;;39.42;32.47;;;23.10;99.90;;;;;;5032134;28;20239;-75
2022/07/21 10:02:28;;;;;;;40.20;30.88;;;23.00;99.90;;;;;;5069877;28;20069;-74
2022/07/21 10:04:59;;;;;;;44.40;32.45;;;23.20;99.90;;;;;;5051865;28;20132;-74
2022/07/21 10:07:26;;;;;;;43.53;33.08;;;23.40;99.90;;;;;;5027901;28;20460;-75
2022/07/21 10:09:52;;;;;;;42.33;32.92;;;23.60;99.90;;;;;;5037580;28;20132;-74
2022/07/21 10:12:18;;;;;;;34.20;28.73;;;24.00;99.90;;;;;;5049884;28;20140;-76
2022/07/21 10:14:46;;;;;;;35.40;28.02;;;24.30;99.90;;;;;;5048041;28;20056;-75
2022/07/21 10:17:13;;;;;;;40.75;33.70;;;24.60;99.90;;;;;;5029846;28;20052;-78
2022/07/21 10:20:07;;;;;;;40.05;32.75;;;24.70;99.90;;;;;;5025191;28;20524;-83
2022/07/21 10:23:06;;;;;;;42.75;34.15;;;24.70;99.90;;;;;;5048548;28;20567;-79
2022/07/21 10:25:33;;;;;;;35.35;29.85;;;24.90;99.90;;;;;;5050332;28;20239;-77
2022/07/21 10:28:12;;;;;;;33.85;28.75;;;24.80;99.90;;;;;;5029035;28;20734;-78
2022/07/21 10:30:42;;;;;;;33.95;29.13;;;24.70;99.90;;;;;;5033147;28;20876;-79
2022/07/21 10:33:08;;;;;;;35.00;27.30;;;24.90;99.90;;;;;;5046887;28;20051;-82
2022/07/21 10:35:35;;;;;;;29.40;24.40;;;24.90;99.90;;;;;;5057996;28;20128;-79
2022/07/21 10:38:03;;;;;;;34.25;26.85;;;25.00;99.90;;;;;;5018622;28;20084;-80
2022/07/21 10:40:29;;;;;;;27.23;24.23;;;25.00;99.90;;;;;;5021536;28;20033;-81
2022/07/21 10:43:01;;;;;;;30.80;25.73;;;25.00;99.90;;;;;;5035779;28;20382;-80
2022/07/21 10:45:40;;;;;;;28.33;24.02;;;25.10;99.90;;;;;;5045584;28;20048;-76
2022/07/21 10:48:39;;;;;;;28.35;23.95;;;25.10;99.90;;;;;;5039096;28;20130;-78
2022/07/21 10:51:10;;;;;;;29.48;22.65;;;24.90;99.90;;;;;;5013800;28;20060;-77
2022/07/21 10:53:35;;;;;;;30.40;26.13;;;25.00;99.90;;;;;;5051035;28;20072;-79
2022/07/21 10:56:03;;;;;;;32.13;26.10;;;24.90;99.90;;;;;;5016925;28;20080;-80
2022/07/21 10:58:41;;;;;;;33.40;25.13;;;24.90;99.90;;;;;;5047438;28;20463;-80
2022/07/21 11:01:27;;;;;;;29.60;24.88;;;24.80;99.90;;;;;;5055248;28;20053;-79
2022/07/21 11:04:13;;;;;;;24.98;22.30;;;24.90;99.90;;;;;;5054919;28;20073;-80
2022/07/21 11:06:40;;;;;;;27.95;23.50;;;24.90;99.90;;;;;;5025070;28;20067;-77
2022/07/21 11:09:13;;;;;;;26.98;23.00;;;24.80;99.90;;;;;;5037347;28;20046;-80
2022/07/21 11:12:03;;;;;;;27.20;23.08;;;24.80;99.90;;;;;;5048460;28;20049;-81
2022/07/21 11:14:49;;;;;;;27.08;21.20;;;24.80;99.90;;;;;;5044565;28;20064;-80
2022/07/21 11:17:28;;;;;;;29.70;23.02;;;24.90;99.90;;;;;;5041192;28;20994;-79
2022/07/21 11:19:54;;;;;;;25.83;21.60;;;25.30;99.90;;;;;;5057593;28;20674;-80
2022/07/21 11:22:20;;;;;;;25.27;20.98;;;25.50;99.90;;;;;;5023872;28;20049;-79
2022/07/21 11:24:50;;;;;;;25.90;21.65;;;25.70;99.90;;;;;;5021300;28;20515;-80
2022/07/21 11:27:17;;;;;;;21.35;18.65;;;26.00;99.90;;;;;;5035652;28;20064;-78
2022/07/21 11:29:44;;;;;;;25.25;19.17;;;26.30;99.90;;;;;;5036652;28;20059;-78
2022/07/21 11:32:11;;;;;;;22.77;19.55;;;26.50;99.90;;;;;;5032400;28;20194;-79
2022/07/21 11:35:02;;;;;;;20.48;17.35;;;26.80;99.90;;;;;;5029636;28;20467;-78
2022/07/21 11:37:36;;;;;;;18.70;16.70;;;27.10;99.90;;;;;;5030968;28;20094;-77
2022/07/21 11:40:07;;;;;;;;;;;27.20;99.90;;;;;;5044465;28;20113;-80
2022/07/21 11:42:33;;;;;;;18.73;15.73;;;27.40;99.90;;;;;;5032140;28;19927;-82
2022/07/21 11:44:59;;;;;;;16.85;14.93;;;27.40;99.90;;;;;;5050902;28;20041;-76
2022/07/21 11:47:25;;;;;;;18.52;13.57;;;27.40;99.90;;;;;;5031882;28;20045;-80
2022/07/21 11:49:56;;;;;;;14.15;12.15;;;27.40;99.90;;;;;;5014173;28;20048;-76
2022/07/21 11:52:31;;;;;;;15.15;13.55;;;27.00;99.90;;;;;;5017378;28;20063;-78
2022/07/21 11:55:02;;;;;;;14.18;12.43;;;26.80;99.90;;;;;;5021038;28;20072;-77
2022/07/21 11:57:28;;;;;;;14.65;11.20;;;27.20;99.90;;;;;;5052013;28;20094;-77
2022/07/21 11:59:56;;;;;;;17.52;11.68;;;27.60;99.90;;;;;;5019442;28;20041;-77
2022/07/21 12:02:25;;;;;;;13.77;10.30;;;27.70;99.90;;;;;;5022430;28;20480;-77
2022/07/21 12:04:53;;;;;;;11.65;10.48;;;27.90;99.90;;;;;;5026277;28;20059;-78
2022/07/21 12:07:43;;;;;;;14.90;9.93;;;27.80;99.90;;;;;;5062940;28;20068;-76
2022/07/21 12:10:11;;;;;;;11.68;10.30;;;28.10;99.90;;;;;;5056277;28;20053;-77
2022/07/21 12:12:46;;;;;;;12.23;10.23;;;28.10;99.90;;;;;;5013672;28;20063;-77
2022/07/21 12:15:15;;;;;;;8.55;7.18;;;28.30;99.90;;;;;;5019410;28;20053;-75
2022/07/21 12:17:50;;;;;;;8.18;7.32;;;28.30;99.90;;;;;;5039172;28;20057;-76
2022/07/21 12:20:29;;;;;;;7.22;6.53;;;28.30;99.90;;;;;;5028277;28;20061;-76
2022/07/21 12:22:56;;;;;;;8.45;6.30;;;28.50;99.90;;;;;;5070692;28;20045;-75
2022/07/21 12:25:40;;;;;;;9.02;7.70;;;28.30;99.90;;;;;;5035178;28;20049;-76
2022/07/21 12:28:07;;;;;;;7.40;6.25;;;28.60;99.90;;;;;;5051804;28;20053;-76
2022/07/21 12:30:44;;;;;;;11.48;6.22;;;28.20;99.90;;;;;;5058153;28;20133;-76
2022/07/21 12:33:17;;;;;;;6.20;5.60;;;27.90;99.90;;;;;;5061006;28;20033;-75
2022/07/21 12:35:56;;;;;;;7.55;6.70;;;28.20;99.90;;;;;;5022356;28;20114;-75
2022/07/21 12:38:22;;;;;;;7.20;6.30;;;28.30;99.90;;;;;;5003196;28;20150;-76
2022/07/21 12:40:56;;;;;;;9.57;8.02;;;28.40;99.90;;;;;;5034172;28;20192;-76